Time;durP1;ratioP1;P1;durP2;ratioP2;P2;SDS_P1;SDS_P2;PMS_P1;PMS_P2;Temp;Humidity;BMP_temperature;BMP_pressure;BME280_temperature;BME280_humidity;BME280_pressure;Samples;Min_cycle;Max_cycle;Signal;HPM_P1;HPM_P2
2024/03/02 00:00:27;;;;;;;;;;;13.70;59.30;;;;;;5082117;28;19928;-60
2024/03/02 00:02:56;;;;;;;;;;;13.70;59.20;;;;;;5091315;28;19928;-57
2024/03/02 00:05:25;;;;;;;;;;;13.70;59.20;;;;;;5058814;28;19968;-62
2024/03/02 00:07:55;;;;;;;;;;;13.70;59.20;;;;;;5077925;28;19928;-59
2024/03/02 00:10:29;;;;;;;;;;;13.70;59.30;;;;;;5086297;28;19935;-58
2024/03/02 00:12:58;;;;;;;;;;;13.70;59.40;;;;;;5077900;28;20279;-58
2024/03/02 00:15:39;;;;;;;;;;;13.70;59.20;;;;;;5073879;28;19927;-58
2024/03/02 00:18:08;;;;;;;;;;;13.70;59.20;;;;;;5083053;28;20015;-58
2024/03/02 00:20:36;;;;;;;;;;;13.70;59.20;;;;;;5083953;27;19927;-58
2024/03/02 00:23:06;;;;;;;;;;;13.60;59.30;;;;;;5088714;28;19936;-58
2024/03/02 00:25:39;;;;;;;;;;;13.60;59.20;;;;;;5076257;28;19935;-58
2024/03/02 00:28:12;;;;;;;;;;;13.60;59.30;;;;;;5090422;28;19928;-60
2024/03/02 00:30:48;;;;;;;;;;;13.60;59.40;;;;;;5085143;28;19927;-57
2024/03/02 00:33:17;;;;;;;;;;;13.60;59.30;;;;;;5058552;28;20672;-56
2024/03/02 00:35:45;;;;;;;;;;;13.60;59.30;;;;;;5083670;28;20400;-58
2024/03/02 00:38:15;;;;;;;;;;;13.60;59.30;;;;;;5076178;28;19942;-58
2024/03/02 00:40:43;;;;;;;;;;;13.60;59.30;;;;;;5086379;28;19950;-63
2024/03/02 00:43:21;;;;;;;;;;;13.50;59.40;;;;;;5074510;28;19928;-57
2024/03/02 00:45:49;;;;;;;;;;;13.50;59.40;;;;;;5088200;28;19923;-58
2024/03/02 00:48:17;;;;;;;;;;;13.60;59.60;;;;;;5081678;28;19927;-59
2024/03/02 00:50:46;;;;;;;;;;;13.60;59.60;;;;;;5081207;28;19934;-62
2024/03/02 00:53:16;;;;;;;;;;;13.50;59.40;;;;;;5078483;28;19935;-63
2024/03/02 00:55:47;;;;;;;;;;;13.60;59.40;;;;;;5088785;28;19965;-58
2024/03/02 00:58:15;;;;;;;;;;;13.50;59.30;;;;;;5086965;28;20010;-58
2024/03/02 01:00:43;;;;;;;;;;;13.50;59.40;;;;;;5084062;28;20012;-59
2024/03/02 01:03:11;;;;;;;;;;;13.50;59.50;;;;;;5074520;28;20038;-58
2024/03/02 01:05:42;;;;;;;;;;;13.50;59.80;;;;;;5082268;28;19937;-56
2024/03/02 01:08:10;;;;;;;;;;;13.40;59.50;;;;;;5080610;28;20015;-58
2024/03/02 01:10:39;;;;;;;;;;;13.40;59.60;;;;;;5083265;28;19950;-57
2024/03/02 01:13:08;;;;;;;;;;;13.30;59.60;;;;;;5083493;28;20130;-60
2024/03/02 01:15:36;;;;;;;;;;;13.30;59.60;;;;;;5084727;28;19928;-58
2024/03/02 01:18:04;;;;;;;;;;;13.40;59.60;;;;;;5080458;28;19934;-63
2024/03/02 01:20:32;;;;;;;;;;;13.40;59.60;;;;;;5088147;28;20448;-58
2024/03/02 01:23:00;;;;;;;;;;;13.40;59.60;;;;;;5085970;28;19935;-59
2024/03/02 01:25:28;;;;;;;;;;;13.40;59.60;;;;;;5080329;28;20750;-59
2024/03/02 01:27:58;;;;;;;;;;;13.40;59.50;;;;;;5086354;28;20306;-59
2024/03/02 01:30:26;;;;;;;;;;;13.40;59.50;;;;;;5090084;28;20004;-58
2024/03/02 01:32:54;;;;;;;;;;;13.40;59.70;;;;;;5084749;28;21169;-59
2024/03/02 01:35:22;;;;;;;;;;;13.40;59.50;;;;;;5072252;28;20360;-57
2024/03/02 01:37:50;;;;;;;;;;;13.40;59.40;;;;;;5078593;28;19951;-58
2024/03/02 01:40:18;;;;;;;;;;;13.50;59.40;;;;;;5088945;28;19928;-58
2024/03/02 01:42:46;;;;;;;;;;;13.50;59.30;;;;;;5084112;28;19924;-59
2024/03/02 01:45:16;;;;;;;;;;;13.50;59.20;;;;;;5077011;28;19986;-58
2024/03/02 01:47:44;;;;;;;;;;;13.50;59.20;;;;;;5086388;28;19963;-57
2024/03/02 01:50:13;;;;;;;;;;;13.60;59.10;;;;;;5086410;28;20051;-60
2024/03/02 01:52:41;;;;;;;;;;;13.60;59.00;;;;;;5083534;28;19928;-57
2024/03/02 01:55:10;;;;;;;;;;;13.70;58.90;;;;;;5078815;28;19966;-57
2024/03/02 01:57:39;;;;;;;;;;;13.70;58.70;;;;;;5083344;28;19928;-58
2024/03/02 02:00:09;;;;;;;;;;;13.70;58.60;;;;;;5086360;28;19936;-58
2024/03/02 02:02:41;;;;;;;;;;;13.80;58.70;;;;;;5083496;28;19928;-56
2024/03/02 02:05:10;;;;;;;;;;;13.80;58.60;;;;;;5089719;28;20350;-56
2024/03/02 02:07:38;;;;;;;;;;;13.80;58.60;;;;;;5084868;28;20019;-59
2024/03/02 02:10:06;;;;;;;;;;;13.90;58.50;;;;;;5080903;28;20393;-60
2024/03/02 02:12:35;;;;;;;;;;;13.90;58.50;;;;;;5082389;28;20239;-59
2024/03/02 02:15:04;;;;;;;;;;;13.90;58.40;;;;;;5085174;28;19928;-59
2024/03/02 02:17:32;;;;;;;;;;;13.90;58.40;;;;;;5076033;28;21981;-59
2024/03/02 02:20:01;;;;;;;;;;;13.90;58.40;;;;;;5090234;28;19927;-59
2024/03/02 02:22:31;;;;;;;;;;;13.90;58.30;;;;;;5086564;27;19932;-58
2024/03/02 02:24:59;;;;;;;;;;;13.80;58.30;;;;;;5081645;27;20390;-58
2024/03/02 02:27:27;;;;;;;;;;;13.80;58.30;;;;;;5080121;28;20747;-58
2024/03/02 02:29:56;;;;;;;;;;;13.80;58.40;;;;;;5085646;28;19932;-60
2024/03/02 02:32:24;;;;;;;;;;;13.80;58.40;;;;;;5067600;28;19955;-57
2024/03/02 02:34:53;;;;;;;;;;;13.80;58.30;;;;;;5071461;28;19924;-59
2024/03/02 02:37:21;;;;;;;;;;;13.80;58.50;;;;;;5077528;28;19928;-59
2024/03/02 02:39:51;;;;;;;;;;;13.70;58.30;;;;;;5081180;28;19928;-58
2024/03/02 02:42:19;;;;;;;;;;;13.60;58.20;;;;;;5084598;28;19932;-58
2024/03/02 02:44:47;;;;;;;;;;;13.50;58.30;;;;;;5086815;27;19973;-58
2024/03/02 02:47:15;;;;;;;;;;;13.30;58.40;;;;;;5077682;28;19931;-59
2024/03/02 02:49:43;;;;;;;;;;;13.20;58.50;;;;;;5093586;28;19935;-57
2024/03/02 02:52:12;;;;;;;;;;;13.20;58.60;;;;;;5082489;28;19932;-56
2024/03/02 02:54:40;;;;;;;;;;;13.10;58.60;;;;;;5089384;28;19923;-57
2024/03/02 02:57:09;;;;;;;;;;;13.10;58.90;;;;;;5088592;28;19928;-58
2024/03/02 02:59:38;;;;;;;;;;;13.00;58.60;;;;;;5071788;28;19931;-57
2024/03/02 03:02:07;;;;;;;;;;;13.00;58.80;;;;;;5061316;28;19985;-58
2024/03/02 03:04:35;;;;;;;;;;;13.00;58.80;;;;;;5072115;28;19985;-59
2024/03/02 03:07:03;;;;;;;;;;;12.90;58.60;;;;;;5084718;28;19928;-59
2024/03/02 03:09:31;;;;;;;;;;;12.90;58.70;;;;;;5074778;28;19935;-56
2024/03/02 03:11:59;;;;;;;;;;;12.90;58.80;;;;;;5083476;28;19934;-57
2024/03/02 03:14:29;;;;;;;;;;;12.90;58.70;;;;;;5083984;28;20516;-58
2024/03/02 03:16:57;;;;;;;;;;;12.90;58.70;;;;;;5082022;28;19939;-59
2024/03/02 03:19:25;;;;;;;;;;;12.90;58.70;;;;;;5080878;28;20340;-59
2024/03/02 03:21:53;;;;;;;;;;;12.90;58.70;;;;;;5083134;27;19928;-58
2024/03/02 03:24:21;;;;;;;;;;;12.80;58.70;;;;;;5081573;28;19960;-59
2024/03/02 03:26:49;;;;;;;;;;;12.80;58.90;;;;;;5088848;28;19928;-59
2024/03/02 03:29:17;;;;;;;;;;;12.80;58.80;;;;;;5073462;28;20126;-58
2024/03/02 03:31:47;;;;;;;;;;;12.70;58.80;;;;;;5083681;28;19939;-57
2024/03/02 03:34:16;;;;;;;;;;;12.70;58.80;;;;;;5058723;28;19957;-58
2024/03/02 03:36:44;;;;;;;;;;;12.60;58.80;;;;;;5079019;28;19985;-60
2024/03/02 03:39:12;;;;;;;;;;;12.60;58.90;;;;;;5082225;28;19977;-59
2024/03/02 03:41:41;;;;;;;;;;;12.50;59.00;;;;;;5087019;28;19928;-60
2024/03/02 03:44:09;;;;;;;;;;;12.50;59.00;;;;;;5085711;28;19931;-59
2024/03/02 03:46:37;;;;;;;;;;;12.40;59.00;;;;;;5084724;28;19938;-58
2024/03/02 03:49:07;;;;;;;;;;;12.40;59.00;;;;;;5081845;28;20543;-59
2024/03/02 03:51:36;;;;;;;;;;;12.30;59.00;;;;;;5083106;28;19964;-59
2024/03/02 03:54:04;;;;;;;;;;;12.30;59.10;;;;;;5083412;28;19928;-58
2024/03/02 03:56:32;;;;;;;;;;;12.30;59.10;;;;;;5078467;28;19924;-59
2024/03/02 03:59:00;;;;;;;;;;;12.20;59.10;;;;;;5086989;28;19954;-59
2024/03/02 04:01:28;;;;;;;;;;;12.20;59.20;;;;;;5069070;28;20421;-60
2024/03/02 04:03:57;;;;;;;;;;;12.20;59.20;;;;;;5086410;28;20027;-60
2024/03/02 04:06:27;;;;;;;;;;;12.10;59.10;;;;;;5086956;28;20400;-60
2024/03/02 04:08:55;;;;;;;;;;;12.10;59.10;;;;;;5080599;28;20261;-59
2024/03/02 04:11:23;;;;;;;;;;;12.00;59.10;;;;;;5081257;28;19939;-59
2024/03/02 04:13:51;;;;;;;;;;;11.90;59.20;;;;;;5081156;28;19959;-59
2024/03/02 04:16:23;;;;;;;;;;;11.80;59.20;;;;;;5084283;28;19928;-59
2024/03/02 04:18:51;;;;;;;;;;;11.70;59.20;;;;;;5080673;28;19931;-60
2024/03/02 04:21:19;;;;;;;;;;;11.60;59.30;;;;;;5079923;27;20038;-60
2024/03/02 04:23:49;;;;;;;;;;;11.50;59.50;;;;;;5082396;28;19928;-60
2024/03/02 04:26:21;;;;;;;;;;;11.50;59.50;;;;;;5084544;28;19977;-59
2024/03/02 04:28:50;;;;;;;;;;;11.40;59.50;;;;;;5080867;28;19970;-59
2024/03/02 04:31:18;;;;;;;;;;;11.30;59.70;;;;;;5071003;28;19932;-58
2024/03/02 04:33:46;;;;;;;;;;;11.30;59.70;;;;;;5073040;28;19928;-59
2024/03/02 04:36:14;;;;;;;;;;;11.20;59.70;;;;;;5082873;28;19985;-59
2024/03/02 04:38:42;;;;;;;;;;;11.10;59.70;;;;;;5077930;28;19928;-60
2024/03/02 04:41:12;;;;;;;;;;;11.10;59.80;;;;;;5080359;28;20349;-57
2024/03/02 04:43:40;;;;;;;;;;;11.10;59.80;;;;;;5079257;28;20314;-60
2024/03/02 04:46:08;;;;;;;;;;;11.00;59.80;;;;;;5083627;28;19932;-59
2024/03/02 04:48:36;;;;;;;;;;;11.00;59.80;;;;;;5079492;28;19931;-60
2024/03/02 04:51:05;;;;;;;;;;;11.00;59.80;;;;;;5084690;28;19928;-59
2024/03/02 04:53:33;;;;;;;;;;;11.00;59.80;;;;;;5080096;28;19928;-59
2024/03/02 04:56:27;;;;;;;;;;;10.90;59.60;;;;;;5082455;28;19924;-59
2024/03/02 04:58:56;;;;;;;;;;;10.90;59.50;;;;;;5087723;28;20384;-59
2024/03/02 05:01:24;;;;;;;;;;;10.90;59.40;;;;;;5075860;28;19928;-59
2024/03/02 05:03:52;;;;;;;;;;;10.90;59.50;;;;;;5086139;28;19947;-59
2024/03/02 05:06:21;;;;;;;;;;;10.90;59.50;;;;;;5084193;28;20402;-57
2024/03/02 05:08:49;;;;;;;;;;;10.80;59.40;;;;;;5078747;28;19932;-59
2024/03/02 05:14:04;;;;;;;;;;;10.80;59.40;;;;;;5082325;28;19946;-61
2024/03/02 05:16:33;;;;;;;;;;;10.80;59.40;;;;;;5080927;28;19963;-60
2024/03/02 05:19:01;;;;;;;;;;;10.70;59.40;;;;;;5080530;28;20350;-60
2024/03/02 05:21:29;;;;;;;;;;;10.70;59.40;;;;;;5078505;28;19924;-59
2024/03/02 05:23:58;;;;;;;;;;;10.70;59.50;;;;;;5085042;28;19956;-58
2024/03/02 05:26:26;;;;;;;;;;;10.60;59.30;;;;;;5077286;28;20386;-59
2024/03/02 05:28:54;;;;;;;;;;;10.60;59.40;;;;;;5086193;28;20011;-60
2024/03/02 05:31:23;;;;;;;;;;;10.60;59.40;;;;;;5078363;28;20011;-60
2024/03/02 05:33:52;;;;;;;;;;;10.60;59.40;;;;;;5085230;28;20525;-60
2024/03/02 05:36:27;;;;;;;;;;;10.60;59.30;;;;;;5086605;28;20268;-57
2024/03/02 05:38:55;;;;;;;;;;;10.50;59.30;;;;;;5087129;28;19928;-63
2024/03/02 05:41:23;;;;;;;;;;;10.50;59.40;;;;;;5083300;27;19935;-59
2024/03/02 05:43:51;;;;;;;;;;;10.50;59.40;;;;;;5084238;28;19943;-58
2024/03/02 05:46:19;;;;;;;;;;;10.40;59.40;;;;;;5083604;28;19936;-59
2024/03/02 05:48:49;;;;;;;;;;;10.40;59.40;;;;;;5093710;27;19923;-59
2024/03/02 05:51:17;;;;;;;;;;;10.40;59.50;;;;;;5073354;28;19931;-62
2024/03/02 05:53:45;;;;;;;;;;;10.40;59.40;;;;;;5085713;28;19928;-58
2024/03/02 05:56:13;;;;;;;;;;;10.40;60.10;;;;;;5088506;28;19934;-60
2024/03/02 05:58:57;;;;;;;;;;;10.30;59.40;;;;;;5086264;28;20135;-59
2024/03/02 06:01:28;;;;;;;;;;;10.30;59.40;;;;;;5078899;28;19928;-59
2024/03/02 06:03:58;;;;;;;;;;;10.30;59.50;;;;;;5081860;28;20030;-61
2024/03/02 06:06:27;;;;;;;;;;;10.30;59.50;;;;;;5085297;28;20303;-62
2024/03/02 06:08:55;;;;;;;;;;;10.30;59.40;;;;;;5071130;28;19970;-59
2024/03/02 06:11:23;;;;;;;;;;;10.30;59.40;;;;;;5081007;28;19932;-60
2024/03/02 06:13:51;;;;;;;;;;;10.30;59.30;;;;;;5076722;28;20000;-60
2024/03/02 06:16:19;;;;;;;;;;;10.30;59.40;;;;;;5087157;28;20619;-59
2024/03/02 06:18:48;;;;;;;;;;;10.40;59.30;;;;;;5087600;28;20345;-60
2024/03/02 06:21:18;;;;;;;;;;;10.40;59.20;;;;;;5082570;27;20494;-58
2024/03/02 06:23:46;;;;;;;;;;;10.50;59.20;;;;;;5065463;28;19959;-59
2024/03/02 06:26:14;;;;;;;;;;;10.50;59.30;;;;;;5081864;28;19932;-59
2024/03/02 06:28:42;;;;;;;;;;;10.50;59.20;;;;;;5087502;28;19928;-57
2024/03/02 06:31:10;;;;;;;;;;;10.60;59.20;;;;;;5083305;28;20548;-58
2024/03/02 06:33:40;;;;;;;;;;;10.60;59.20;;;;;;5083650;28;19931;-60
2024/03/02 06:36:09;;;;;;;;;;;10.70;59.10;;;;;;5086048;27;21386;-63
2024/03/02 06:38:40;;;;;;;;;;;10.70;59.10;;;;;;5083067;27;20321;-59
2024/03/02 06:41:10;;;;;;;;;;;10.70;59.30;;;;;;5083250;28;19928;-57
2024/03/02 06:43:38;;;;;;;;;;;10.80;59.10;;;;;;5082961;28;19932;-60
2024/03/02 06:46:09;;;;;;;;;;;10.80;59.10;;;;;;5087331;28;20393;-60
2024/03/02 06:48:37;;;;;;;;;;;10.90;59.10;;;;;;5082146;27;19932;-60
2024/03/02 06:51:06;;;;;;;;;;;10.90;59.00;;;;;;5085536;28;20406;-60
2024/03/02 06:53:35;;;;;;;;;;;11.00;59.20;;;;;;5083520;28;20290;-60
2024/03/02 06:56:05;;;;;;;;;;;11.10;59.10;;;;;;5085401;28;19932;-59
2024/03/02 06:58:33;;;;;;;;;;;11.30;59.00;;;;;;5085276;28;19932;-58
2024/03/02 07:01:02;;;;;;;;;;;11.40;59.00;;;;;;5085014;28;20307;-60
2024/03/02 07:03:30;;;;;;;;;;;11.50;58.90;;;;;;5075904;28;20009;-64
2024/03/02 07:05:58;;;;;;;;;;;11.80;59.00;;;;;;5080447;28;19928;-59
2024/03/02 07:08:27;;;;;;;;;;;12.00;58.90;;;;;;5083664;28;19957;-61
2024/03/02 07:10:57;;;;;;;;;;;12.30;58.80;;;;;;5081626;28;19935;-60
2024/03/02 07:13:26;;;;;;;;;;;12.60;58.70;;;;;;5062227;28;19924;-61
2024/03/02 07:18:41;;;;;;;;;;;13.20;58.50;;;;;;5080225;28;19932;-59
2024/03/02 07:21:09;;;;;;;;;;;13.50;58.30;;;;;;5087173;27;20279;-61
2024/03/02 07:23:39;;;;;;;;;;;13.80;58.10;;;;;;5079515;28;19977;-60
2024/03/02 07:26:07;;;;;;;;;;;14.00;58.00;;;;;;5084256;28;19939;-65
2024/03/02 07:28:40;;;;;;;;;;;14.20;57.80;;;;;;5079084;28;19928;-59
2024/03/02 07:31:09;;;;;;;;;;;14.40;57.70;;;;;;5079828;28;19936;-58
2024/03/02 07:33:38;;;;;;;;;;;14.60;57.60;;;;;;5080105;28;19936;-61
2024/03/02 07:36:06;;;;;;;;;;;14.80;57.50;;;;;;5080155;27;19957;-66
2024/03/02 07:38:35;;;;;;;;;;;14.90;57.30;;;;;;5081483;28;19928;-62
2024/03/02 07:41:04;;;;;;;;;;;15.10;57.40;;;;;;5083958;28;19932;-60
2024/03/02 07:43:33;;;;;;;;;;;15.20;57.30;;;;;;5075617;28;21679;-60
2024/03/02 07:46:04;;;;;;;;;;;15.40;57.20;;;;;;5079270;27;20350;-59
2024/03/02 07:48:32;;;;;;;;;;;15.60;57.00;;;;;;5078435;28;20381;-58
2024/03/02 07:51:02;;;;;;;;;;;15.70;56.80;;;;;;5082743;28;19935;-62
2024/03/02 07:53:30;;;;;;;;;;;15.70;56.80;;;;;;5074976;28;20354;-59
2024/03/02 07:56:02;;;;;;;;;;;15.70;56.70;;;;;;5081667;28;20023;-63
2024/03/02 07:58:33;;;;;;;;;;;15.80;56.80;;;;;;5086314;28;19938;-60
2024/03/02 08:01:02;;;;;;;;;;;15.90;56.70;;;;;;5079178;28;20380;-59
2024/03/02 08:03:32;;;;;;;;;;;15.90;56.30;;;;;;5072375;28;19924;-51
2024/03/02 08:06:00;;;;;;;;;;;15.80;56.50;;;;;;5083922;28;19927;-53
2024/03/02 08:08:29;;;;;;;;;;;15.90;56.50;;;;;;5065526;28;19935;-53
2024/03/02 08:10:57;;;;;;;;;;;15.80;56.60;;;;;;5076915;27;20310;-53
2024/03/02 08:13:28;;;;;;;;;;;15.90;57.20;;;;;;5072270;28;20260;-50
2024/03/02 08:15:56;;;;;;;;;;;16.30;57.90;;;;;;5061399;28;20555;-54
2024/03/02 08:18:25;;;;;;;;;;;17.60;59.10;;;;;;5082407;28;20028;-53
2024/03/02 08:20:54;;;;;;;;;;;18.90;57.70;;;;;;5079841;28;20043;-53
2024/03/02 08:23:22;;;;;;;;;;;19.60;56.30;;;;;;5072416;28;20271;-62
2024/03/02 08:25:51;;;;;;;;;;;20.40;55.80;;;;;;5080862;28;19931;-63
2024/03/02 08:28:19;;;;;;;;;;;21.10;55.70;;;;;;5076310;28;19928;-61
2024/03/02 08:30:48;;;;;;;;;;;22.00;55.40;;;;;;5069580;28;19939;-62
2024/03/02 08:33:16;;;;;;;;;;;22.80;54.70;;;;;;5078752;27;20554;-64
2024/03/02 08:35:44;;;;;;;;;;;23.50;54.00;;;;;;5081235;27;19928;-66
2024/03/02 08:38:13;;;;;;;;;;;23.80;53.60;;;;;;5074136;28;20301;-67
2024/03/02 08:40:42;;;;;;;;;;;23.90;53.10;;;;;;5064942;28;19935;-64
2024/03/02 08:43:10;;;;;;;;;;;23.90;53.40;;;;;;5079344;28;19928;-62
2024/03/02 08:45:39;;;;;;;;;;;24.10;53.50;;;;;;5081385;28;19923;-62
2024/03/02 08:48:08;;;;;;;;;;;24.30;53.40;;;;;;5081542;28;19938;-64
2024/03/02 08:50:36;;;;;;;;;;;24.50;53.10;;;;;;5076137;28;20097;-64
2024/03/02 08:53:05;;;;;;;;;;;24.30;51.90;;;;;;5082196;28;19928;-65
2024/03/02 08:55:35;;;;;;;;;;;24.10;52.60;;;;;;5076537;28;22549;-64
2024/03/02 08:58:04;;;;;;;;;;;24.40;52.60;;;;;;5078713;28;19935;-64
2024/03/02 09:00:32;;;;;;;;;;;24.40;51.80;;;;;;5079468;28;20542;-64
2024/03/02 09:03:01;;;;;;;;;;;24.40;52.50;;;;;;5076958;28;19932;-67
2024/03/02 09:05:29;;;;;;;;;;;25.30;53.50;;;;;;5058327;28;19932;-63
2024/03/02 09:07:57;;;;;;;;;;;26.60;53.10;;;;;;5077097;28;20488;-63
2024/03/02 09:10:25;;;;;;;;;;;27.90;52.30;;;;;;5082958;28;20423;-64
2024/03/02 09:12:57;;;;;;;;;;;29.00;51.10;;;;;;5083183;28;19935;-64
2024/03/02 09:15:25;;;;;;;;;;;29.50;50.20;;;;;;5071395;28;19974;-63
2024/03/02 09:17:53;;;;;;;;;;;29.80;49.50;;;;;;5079897;28;19939;-63
2024/03/02 09:20:22;;;;;;;;;;;30.10;49.60;;;;;;5083136;28;20038;-63
2024/03/02 09:22:50;;;;;;;;;;;30.40;49.40;;;;;;5084745;28;19935;-64
2024/03/02 09:25:18;;;;;;;;;;;30.70;49.30;;;;;;5072568;28;19932;-64
2024/03/02 09:27:47;;;;;;;;;;;30.90;48.80;;;;;;5086629;28;19932;-64
2024/03/02 09:30:16;;;;;;;;;;;31.20;48.70;;;;;;5077533;28;20462;-63
2024/03/02 09:32:44;;;;;;;;;;;31.60;49.00;;;;;;5077102;28;19947;-63
2024/03/02 09:35:16;;;;;;;;;;;32.00;48.40;;;;;;5071725;28;19928;-63
2024/03/02 09:37:44;;;;;;;;;;;32.30;48.20;;;;;;5077594;28;19934;-63
2024/03/02 09:40:12;;;;;;;;;;;32.60;48.20;;;;;;5085407;28;19928;-63
2024/03/02 09:42:41;;;;;;;;;;;33.00;48.20;;;;;;5084242;28;19924;-63
2024/03/02 09:45:10;;;;;;;;;;;33.30;47.80;;;;;;5085561;28;20293;-63
2024/03/02 09:47:39;;;;;;;;;;;33.50;47.40;;;;;;5073652;28;19931;-61
2024/03/02 09:50:08;;;;;;;;;;;33.60;47.20;;;;;;5080508;28;19939;-63
2024/03/02 09:52:37;;;;;;;;;;;33.50;46.80;;;;;;5080760;28;19938;-63
2024/03/02 09:55:06;;;;;;;;;;;33.30;47.00;;;;;;5080123;28;19939;-63
2024/03/02 09:57:34;;;;;;;;;;;33.40;47.50;;;;;;5074945;28;20271;-64
2024/03/02 10:00:05;;;;;;;;;;;33.60;47.30;;;;;;5088217;28;19928;-63
2024/03/02 10:02:33;;;;;;;;;;;34.00;47.20;;;;;;5082589;28;19939;-66
2024/03/02 10:05:04;;;;;;;;;;;34.40;46.80;;;;;;5067387;28;19928;-63
2024/03/02 10:07:32;;;;;;;;;;;34.60;46.50;;;;;;5075302;28;20039;-63
2024/03/02 10:10:12;;;;;;;;;;;34.90;46.60;;;;;;5086203;28;20055;-62
2024/03/02 10:12:40;;;;;;;;;;;35.20;46.40;;;;;;5085885;28;19935;-64
2024/03/02 10:15:09;;;;;;;;;;;35.30;45.70;;;;;;5083707;28;19939;-61
2024/03/02 10:17:38;;;;;;;;;;;35.30;45.20;;;;;;5077678;28;19935;-62
2024/03/02 10:20:28;;;;;;;;;;;35.00;44.80;;;;;;5084429;27;20002;-63
2024/03/02 10:23:10;;;;;;;;;;;34.80;44.90;;;;;;5084489;28;19927;-61
2024/03/02 10:25:38;;;;;;;;;;;34.80;44.90;;;;;;5085200;28;19943;-63
2024/03/02 10:28:19;;;;;;;;;;;34.50;44.90;;;;;;5085941;28;19943;-62
2024/03/02 10:30:48;;;;;;;;;;;34.40;45.00;;;;;;5085991;28;19927;-63
2024/03/02 10:33:18;;;;;;;;;;;34.10;44.20;;;;;;5078772;27;19931;-65
2024/03/02 10:35:48;;;;;;;;;;;33.60;44.10;;;;;;5084099;28;19931;-64
2024/03/02 10:38:17;;;;;;;;;;;33.50;44.80;;;;;;5079386;28;19971;-63
2024/03/02 10:40:47;;;;;;;;;;;33.70;45.00;;;;;;5091612;28;19928;-63
2024/03/02 10:43:16;;;;;;;;;;;33.90;44.60;;;;;;5086041;28;19928;-65
2024/03/02 10:45:45;;;;;;;;;;;34.00;44.30;;;;;;5091718;28;19940;-65
2024/03/02 10:48:13;;;;;;;;;;;34.10;44.00;;;;;;5082844;28;19947;-62
2024/03/02 10:50:41;;;;;;;;;;;34.30;43.90;;;;;;5082969;28;19935;-63
2024/03/02 10:53:11;;;;;;;;;;;34.50;43.80;;;;;;5089063;28;20394;-62
2024/03/02 10:55:39;;;;;;;;;;;34.80;43.70;;;;;;5081547;28;20374;-65
2024/03/02 10:58:12;;;;;;;;;;;34.90;43.10;;;;;;5090575;28;19950;-63
2024/03/02 11:00:42;;;;;;;;;;;34.60;42.60;;;;;;5082187;28;20362;-62
2024/03/02 11:03:11;;;;;;;;;;;34.10;42.60;;;;;;5083069;27;19933;-64
2024/03/02 11:05:41;;;;;;;;;;;33.80;42.70;;;;;;5083132;28;19932;-64
2024/03/02 11:08:13;;;;;;;;;;;33.30;42.70;;;;;;5066671;28;19984;-66
2024/03/02 11:10:42;;;;;;;;;;;32.80;43.00;;;;;;5085196;28;19943;-65
2024/03/02 11:13:12;;;;;;;;;;;32.20;43.00;;;;;;5083500;28;19925;-63
2024/03/02 11:15:41;;;;;;;;;;;31.60;43.60;;;;;;5081505;28;19932;-65
2024/03/02 11:18:10;;;;;;;;;;;31.20;44.20;;;;;;5085368;27;19927;-64
2024/03/02 11:20:39;;;;;;;;;;;30.70;44.50;;;;;;5090320;27;20011;-63
2024/03/02 11:23:08;;;;;;;;;;;30.10;44.70;;;;;;5085412;28;19973;-64
2024/03/02 11:25:39;;;;;;;;;;;29.20;44.70;;;;;;5082488;28;20617;-67
2024/03/02 11:28:09;;;;;;;;;;;28.00;45.20;;;;;;5088388;28;20180;-63
2024/03/02 11:30:51;;;;;;;;;;;26.80;46.10;;;;;;5088798;28;19927;-63
2024/03/02 11:33:27;;;;;;;;;;;25.70;47.10;;;;;;5065890;28;19932;-64
2024/03/02 11:35:57;;;;;;;;;;;24.50;48.20;;;;;;5070121;28;19928;-63
2024/03/02 11:38:29;;;;;;;;;;;23.50;49.30;;;;;;5084632;28;19927;-64
2024/03/02 11:41:00;;;;;;;;;;;22.70;50.20;;;;;;5081362;28;20067;-62
2024/03/02 11:43:28;;;;;;;;;;;22.00;51.10;;;;;;5081469;28;20378;-62
2024/03/02 11:46:00;;;;;;;;;;;21.50;51.70;;;;;;5067090;28;19928;-63
2024/03/02 11:48:30;;;;;;;;;;;21.20;52.30;;;;;;5081852;28;19954;-64
2024/03/02 11:50:59;;;;;;;;;;;20.90;52.60;;;;;;5082370;28;19928;-62
2024/03/02 11:53:28;;;;;;;;;;;20.60;53.00;;;;;;5082144;28;19935;-64
2024/03/02 11:56:02;;;;;;;;;;;20.50;53.20;;;;;;5079896;28;19932;-63
2024/03/02 11:58:31;;;;;;;;;;;20.30;53.30;;;;;;5087671;28;19928;-67
2024/03/02 12:00:59;;;;;;;;;;;20.20;53.60;;;;;;5079576;28;19978;-66
2024/03/02 12:03:27;;;;;;;;;;;20.20;53.70;;;;;;5062498;28;19928;-62
2024/03/02 12:05:56;;;;;;;;;;;20.20;53.70;;;;;;5080324;28;19947;-64
2024/03/02 12:08:24;;;;;;;;;;;20.20;53.70;;;;;;5079014;28;19927;-63
2024/03/02 12:10:59;;;;;;;;;;;20.20;53.80;;;;;;5079294;28;20394;-64
2024/03/02 12:13:28;;;;;;;;;;;20.20;53.70;;;;;;5072924;28;20013;-62
2024/03/02 12:15:57;;;;;;;;;;;20.20;53.70;;;;;;5085200;28;19928;-63
2024/03/02 12:18:26;;;;;;;;;;;20.10;53.60;;;;;;5078205;28;20353;-66
2024/03/02 12:20:57;;;;;;;;;;;20.10;53.70;;;;;;5087901;27;19938;-63
2024/03/02 12:23:26;;;;;;;;;;;20.00;53.70;;;;;;5083111;28;19938;-62
2024/03/02 12:25:54;;;;;;;;;;;20.10;53.90;;;;;;5084379;28;20408;-63
2024/03/02 12:28:24;;;;;;;;;;;20.10;53.70;;;;;;5077358;28;20475;-62
2024/03/02 12:30:54;;;;;;;;;;;20.10;53.90;;;;;;5080766;27;19935;-63
2024/03/02 12:33:22;;;;;;;;;;;20.10;53.80;;;;;;5056339;28;19974;-63
2024/03/02 12:35:52;;;;;;;;;;;20.10;54.00;;;;;;5068088;28;19928;-66
2024/03/02 12:38:25;;;;;;;;;;;20.20;53.80;;;;;;5089084;28;19952;-62
2024/03/02 12:40:53;;;;;;;;;;;20.20;53.70;;;;;;5076562;28;20386;-64
2024/03/02 12:43:23;;;;;;;;;;;20.10;53.70;;;;;;5078607;28;20286;-63
2024/03/02 12:45:55;;;;;;;;;;;20.10;53.60;;;;;;5083667;28;19931;-62
2024/03/02 12:48:24;;;;;;;;;;;20.20;53.70;;;;;;5080711;28;19934;-64
2024/03/02 12:50:52;;;;;;;;;;;20.20;53.70;;;;;;5085896;28;19943;-63
2024/03/02 12:53:22;;;;;;;;;;;20.20;53.70;;;;;;5073069;28;19971;-61
2024/03/02 12:55:50;;;;;;;;;;;20.20;53.70;;;;;;5089387;28;19939;-62
2024/03/02 12:58:19;;;;;;;;;;;20.30;53.80;;;;;;5063557;28;19935;-62
2024/03/02 13:00:48;;;;;;;;;;;20.30;53.70;;;;;;5084085;28;20423;-62
2024/03/02 13:03:22;;;;;;;;;;;20.30;53.70;;;;;;5073604;28;19927;-61
2024/03/02 13:05:51;;;;;;;;;;;20.40;53.60;;;;;;5082623;28;19928;-63
2024/03/02 13:08:20;;;;;;;;;;;20.40;53.50;;;;;;5086030;28;20106;-64
2024/03/02 13:10:48;;;;;;;;;;;20.40;53.50;;;;;;5078981;28;19928;-63
2024/03/02 13:13:17;;;;;;;;;;;20.50;53.60;;;;;;5079583;28;19977;-62
2024/03/02 13:15:45;;;;;;;;;;;20.50;53.40;;;;;;5084075;28;19953;-62
2024/03/02 13:18:14;;;;;;;;;;;20.50;53.40;;;;;;5076705;28;20343;-63
2024/03/02 13:20:44;;;;;;;;;;;20.50;53.30;;;;;;5087288;28;19946;-62
2024/03/02 13:23:14;;;;;;;;;;;20.50;53.30;;;;;;5077911;28;19928;-64
2024/03/02 13:25:43;;;;;;;;;;;20.60;53.40;;;;;;5086347;28;19924;-63
2024/03/02 13:28:11;;;;;;;;;;;20.70;53.50;;;;;;5084459;28;19935;-65
2024/03/02 13:30:41;;;;;;;;;;;20.70;53.40;;;;;;5082549;28;20282;-67
2024/03/02 13:33:09;;;;;;;;;;;20.80;53.30;;;;;;5085855;28;19928;-62
2024/03/02 13:35:38;;;;;;;;;;;20.80;53.30;;;;;;5079469;28;19931;-62
2024/03/02 13:38:08;;;;;;;;;;;20.90;53.20;;;;;;5084147;28;20032;-65
2024/03/02 13:40:36;;;;;;;;;;;20.90;53.30;;;;;;5085465;28;19927;-63
2024/03/02 13:43:05;;;;;;;;;;;20.90;53.10;;;;;;5077835;28;19927;-62
2024/03/02 13:45:34;;;;;;;;;;;21.00;53.30;;;;;;5080256;28;21634;-65
2024/03/02 13:48:03;;;;;;;;;;;20.90;52.60;;;;;;5080630;28;19932;-65
2024/03/02 13:50:32;;;;;;;;;;;20.90;52.80;;;;;;5084639;28;19945;-64
2024/03/02 13:53:00;;;;;;;;;;;20.90;53.00;;;;;;5086412;28;19974;-64
2024/03/02 13:55:30;;;;;;;;;;;20.90;53.00;;;;;;5077418;28;20597;-64
2024/03/02 13:57:58;;;;;;;;;;;20.90;52.70;;;;;;5071548;28;20000;-63
2024/03/02 14:00:26;;;;;;;;;;;20.90;52.70;;;;;;5073476;28;20064;-63
2024/03/02 14:02:55;;;;;;;;;;;20.90;52.80;;;;;;5086617;28;20013;-65
2024/03/02 14:05:23;;;;;;;;;;;20.90;52.80;;;;;;5074375;27;19935;-62
2024/03/02 14:07:52;;;;;;;;;;;20.90;52.50;;;;;;5086543;28;20014;-63
2024/03/02 14:10:22;;;;;;;;;;;20.90;52.70;;;;;;5081440;28;19928;-62
2024/03/02 14:12:52;;;;;;;;;;;20.90;52.60;;;;;;5088484;28;19939;-62
2024/03/02 14:15:20;;;;;;;;;;;20.90;52.60;;;;;;5080699;28;20014;-62
2024/03/02 14:17:49;;;;;;;;;;;20.90;53.00;;;;;;5086708;27;20405;-66
2024/03/02 14:20:21;;;;;;;;;;;20.80;52.40;;;;;;5085758;28;19928;-63
2024/03/02 14:22:50;;;;;;;;;;;20.70;52.30;;;;;;5087192;28;20465;-63
2024/03/02 14:25:18;;;;;;;;;;;20.60;52.20;;;;;;5078664;28;19934;-64
2024/03/02 14:27:47;;;;;;;;;;;20.50;52.30;;;;;;5091337;28;19932;-64
2024/03/02 14:30:37;;;;;;;;;;;20.50;52.60;;;;;;5088121;28;20579;-63
2024/03/02 14:33:05;;;;;;;;;;;20.40;52.50;;;;;;5085868;27;19928;-67